Flight Track Log - Related Links

Times and Time Zones

All times are in EDT time to prevent confusion due to time zone crossing. See the JZA8279 flight status page for this flight to view local times or setup timezone preferences in your user account.

Time Position Orientation Groundspeed Altitude Reporting Facility
EDT Latitude Longitude Course Direction KTS MPH feet Rate Location/Type
Thu 01:53:02 PM 54.2333 -130.4500 136° Southeast 110 127 2,200  Level Vancouver Center
Thu 01:54:02 PM 54.2000 -130.4167 150° Southeast 140 161 3,500 1,350 Climbing Vancouver Center
Thu 01:55:02 PM 54.1667 -130.3833 150° Southeast 150 173 4,900 1,400 Climbing Vancouver Center
Thu 01:56:02 PM 54.1167 -130.3500 159° South 170 196 6,300 1,450 Climbing Vancouver Center
Thu 01:57:00 PM 53.9911 -129.9509 135° Southeast  Level FlightAware Approximate
Thu 01:57:02 PM 54.1000 -130.2833 113° Southeast 170 196 7,800  Level Vancouver Center
Thu 01:58:00 PM 53.9417 -129.8692 136° Southeast  Level FlightAware Approximate
Thu 01:58:02 PM 54.0667 -130.2333 139° Southeast 180 207 8,500  Level Vancouver Center
Thu 01:59:02 PM 54.0167 -130.1333 130° Southeast 220 253 9,000 500 Climbing Vancouver Center
Thu 02:00:02 PM 53.9667 -130.0667 142° Southeast 230 265 9,500 500 Climbing Vancouver Center
Thu 02:01:02 PM 53.9167 -129.9833 136° Southeast 240 276 10,000 450 Climbing Vancouver Center
Thu 02:02:02 PM 53.8833 -129.9167 130° Southeast 250 288 10,400 500 Climbing Vancouver Center
Thu 02:03:02 PM 53.8333 -129.8167 130° Southeast 250 288 11,000 500 Climbing Vancouver Center
Thu 02:04:02 PM 53.7833 -129.7333 135° Southeast 250 288 11,400 450 Climbing Vancouver Center
Thu 02:05:02 PM 53.7167 -129.6333 138° Southeast 260 299 11,900 500 Climbing Vancouver Center
Thu 02:06:02 PM 53.6833 -129.5500 124° Southeast 260 299 12,400 500 Climbing Vancouver Center
Thu 02:07:02 PM 53.6167 -129.4500 138° Southeast 260 299 12,900 500 Climbing Vancouver Center
Thu 02:08:02 PM 53.5667 -129.4000 149° Southeast 270 311 13,400 500 Climbing Vancouver Center
Thu 02:09:02 PM 53.5167 -129.3000 130° Southeast 270 311 13,900 500 Climbing Vancouver Center
Thu 02:10:02 PM 53.4833 -129.2167 124° Southeast 270 311 14,400 500 Climbing Vancouver Center
Thu 02:11:02 PM 53.4167 -129.1167 138° Southeast 270 311 14,900 500 Climbing Vancouver Center
Thu 02:12:02 PM 53.3667 -129.0333 135° Southeast 250 288 15,400 500 Climbing Vancouver Center
Thu 02:13:02 PM 53.3000 -128.9333 138° Southeast 270 311 15,900 500 Climbing Vancouver Center
Thu 02:14:02 PM 53.2500 -128.8500 135° Southeast 260 299 16,400 550 Climbing Vancouver Center
Thu 02:15:02 PM 53.2167 -128.7667 124° Southeast 270 311 17,000 600 Climbing Vancouver Center
Thu 02:16:02 PM 53.1500 -128.6667 138° Southeast 270 311 17,600 500 Climbing Vancouver Center
Thu 02:17:02 PM 53.1000 -128.5833 135° Southeast 260 299 18,000 150 Climbing Vancouver Center
Thu 02:18:02 PM 53.0500 -128.5000 135° Southeast 260 299 17,900 200 Descending Vancouver Center
Thu 02:19:02 PM 52.9833 -128.4333 149° Southeast 260 299 18,400 500 Climbing Vancouver Center
Thu 02:20:02 PM 52.9500 -128.3500 124° Southeast 270 311 18,900 300 Climbing Vancouver Center
Thu 02:21:02 PM 52.9000 -128.2500 130° Southeast 260 299 19,000 50 Climbing Vancouver Center
Thu 02:22:02 PM 52.8333 -128.1667 143° Southeast 280 322 19,000  Level Vancouver Center
Thu 02:23:02 PM 52.7667 -128.0833 143° Southeast 280 322 19,000  Level Vancouver Center
Thu 02:24:02 PM 52.7167 -127.9833 130° Southeast 290 334 19,000  Level Vancouver Center
Thu 02:25:02 PM 52.6500 -127.9000 143° Southeast 290 334 19,000  Level Vancouver Center
Thu 02:26:02 PM 52.6167 -127.7833 115° Southeast 270 311 19,000  Level Vancouver Center
Thu 02:27:02 PM 52.5500 -127.7167 149° Southeast 270 311 19,000  Level Vancouver Center
Thu 02:28:02 PM 52.5000 -127.6333 135° Southeast 260 299 19,000  Level Vancouver Center
Thu 02:29:02 PM 52.4500 -127.5500 135° Southeast 260 299 19,000  Level Vancouver Center
Thu 02:30:02 PM 52.4000 -127.4667 135° Southeast 260 299 19,000  Level Vancouver Center
Thu 02:31:02 PM 52.3333 -127.3833 143° Southeast 260 299 19,000  Level Vancouver Center
Thu 02:32:02 PM 52.3000 -127.3167 129° Southeast 260 299 19,000  Level Vancouver Center
Thu 02:33:02 PM 52.2500 -127.2333 134° Southeast 250 288 19,000  Level Vancouver Center
Thu 02:34:02 PM 52.2000 -127.1500 134° Southeast 250 288 19,000  Level Vancouver Center
Thu 02:35:02 PM 52.1500 -127.0833 141° Southeast 250 288 19,000  Level Vancouver Center
Thu 02:36:02 PM 52.0833 -127.0000 142° Southeast 250 288 19,000  Level Vancouver Center
Thu 02:37:02 PM 52.0333 -126.9167 134° Southeast 250 288 19,000  Level Vancouver Center
Thu 02:38:02 PM 51.9833 -126.8333 134° Southeast 250 288 19,000  Level Vancouver Center
Thu 02:39:02 PM 51.9333 -126.7833 148° Southeast 260 299 19,000  Level Vancouver Center
Thu 02:40:02 PM 51.8667 -126.7000 142° Southeast 260 299 19,000  Level Vancouver Center
Thu 02:41:02 PM 51.8333 -126.6000 118° Southeast 260 299 19,000  Level Vancouver Center
Thu 02:42:02 PM 51.7833 -126.5167 134° Southeast 260 299 19,000  Level Vancouver Center
Thu 02:43:02 PM 51.7333 -126.4333 134° Southeast 260 299 19,000  Level Vancouver Center
Thu 02:44:02 PM 51.6667 -126.3833 155° Southeast 250 288 19,000  Level Vancouver Center
Thu 02:45:02 PM 51.6167 -126.3500 158° South 240 276 19,000  Level Vancouver Center
Thu 02:46:02 PM 51.5500 -126.3000 155° Southeast 230 265 19,000  Level Vancouver Center
Thu 02:47:02 PM 51.4833 -126.2667 163° South 230 265 19,000  Level Vancouver Center
Thu 02:48:02 PM 51.4333 -126.2333 157° South 230 265 19,000  Level Vancouver Center
Thu 02:49:02 PM 51.3667 -126.2000 163° South 230 265 19,000 -200 Level Vancouver Center
Thu 02:50:02 PM 51.3167 -126.1167 134° Southeast 250 288 18,600 -450 Descending Vancouver Center
Thu 02:51:02 PM 51.2667 -126.0333 134° Southeast 270 311 18,100 -200 Descending Vancouver Center
Thu 02:52:02 PM 51.2000 -125.9333 137° Southeast 270 311 18,200 -200 Climbing Vancouver Center
Thu 02:53:02 PM 51.1500 -125.8500 134° Southeast 280 322 17,700 -550 Descending Vancouver Center
Thu 02:54:02 PM 51.1167 -125.7667 122° Southeast 280 322 17,100 -300 Descending Vancouver Center
Thu 02:55:02 PM 51.0667 -125.6833 134° Southeast 280 322 17,100  Level Vancouver Center
Thu 02:56:02 PM 51.0000 -125.6000 142° Southeast 270 311 17,100  Level Vancouver Center
Thu 02:57:02 PM 50.9500 -125.5167 134° Southeast 260 299 17,100  Level Vancouver Center
Thu 02:58:02 PM 50.9000 -125.4333 134° Southeast 260 299 17,100  Level Vancouver Center
Thu 02:59:02 PM 50.8500 -125.3667 140° Southeast 270 311 17,100  Level Vancouver Center
Thu 03:00:02 PM 50.8000 -125.2833 133° Southeast 260 299 17,100  Level Vancouver Center
Thu 03:01:02 PM 50.7500 -125.1667 124° Southeast 270 311 17,100  Level Vancouver Center
Thu 03:02:02 PM 50.6833 -125.0833 142° Southeast 270 311 17,100 -50 Level Vancouver Center
Thu 03:03:02 PM 50.6333 -125.0167 140° Southeast 270 311 17,000 -50 Descending Vancouver Center
Thu 03:04:02 PM 50.5833 -124.9333 133° Southeast 270 311 17,000  Level Vancouver Center
Thu 03:05:02 PM 50.5167 -124.8500 142° Southeast 270 311 17,000  Level Vancouver Center
Thu 03:06:02 PM 50.4667 -124.7667 133° Southeast 270 311 17,000 50 Level Vancouver Center
Thu 03:07:02 PM 50.4167 -124.6833 133° Southeast 270 311 17,100 50 Climbing Vancouver Center
Thu 03:08:02 PM 50.3667 -124.6167 140° Southeast 270 311 17,100  Level Vancouver Center
Thu 03:09:02 PM 50.3000 -124.5000 132° Southeast 270 311 17,100  Level Vancouver Center
Thu 03:10:02 PM 50.2500 -124.4333 140° Southeast 280 322 17,100  Level Vancouver Center
Thu 03:11:02 PM 50.2000 -124.3500 133° Southeast 280 322 17,100 -50 Level Vancouver Center
Thu 03:12:02 PM 50.1500 -124.2667 133° Southeast 270 311 17,000 -350 Descending Vancouver Center
Thu 03:13:02 PM 50.0833 -124.1667 136° Southeast 280 322 16,400 -650 Descending Vancouver Center
Thu 03:14:02 PM 50.0333 -124.0833 133° Southeast 290 334 15,700 -950 Descending Vancouver Center
Thu 03:15:02 PM 49.9667 -123.9833 136° Southeast 300 345 14,500 -1,100 Descending Vancouver Center
Thu 03:16:02 PM 49.9000 -123.9000 141° Southeast 300 345 13,500 -1,000 Descending Vancouver Center
Thu 03:17:02 PM 49.8500 -123.8167 133° Southeast 290 334 12,500 -900 Descending Vancouver Center
Thu 03:18:02 PM 49.8000 -123.7167 128° Southeast 290 334 11,700 -850 Descending Vancouver Center
Thu 03:19:02 PM 49.7167 -123.6667 159° South 270 311 10,800 -800 Descending Vancouver Center
Thu 03:20:02 PM 49.6667 -123.6167 147° Southeast 270 311 10,100 -400 Descending Vancouver Center
Thu 03:21:02 PM 49.6000 -123.5667 154° Southeast 270 311 10,000 -50 Descending Vancouver Center
Thu 03:22:02 PM 49.5333 -123.5167 154° Southeast 270 311 10,000  Level Vancouver Center
Thu 03:23:02 PM 49.4667 -123.4667 154° Southeast 260 299 10,000  Level Vancouver Center
Thu 03:24:02 PM 49.4000 -123.4167 154° Southeast 260 299 10,000  Level Vancouver Center
Thu 03:25:02 PM 49.3333 -123.3667 154° Southeast 260 299 10,000  Level Vancouver Center
Thu 03:26:02 PM 49.2667 -123.3167 154° Southeast 260 299 10,000 -800 Level Vancouver Center
Thu 03:27:02 PM 49.2500 -123.1833 101° East 280 322 8,400 -2,050 Descending Vancouver Center
Thu 03:28:02 PM 49.2500 -123.0833 90° East 270 311 5,900 -2,450 Descending Vancouver Center
Thu 03:29:02 PM 49.2333 -122.9833 104° East 250 288 3,500 -1,450 Descending Vancouver Center
Thu 03:30:02 PM 49.2000 -122.9000 121° Southeast 200 230 3,000 -500 Descending Vancouver Center
Thu 03:31:02 PM 49.1833 -122.9500 243° Southwest 180 207 2,500 -650 Descending Vancouver Center
Thu 03:32:02 PM 49.1667 -123.0333 253° West 170 196 1,700 -800 Descending Vancouver Center
Thu 03:33:02 PM 49.1667 -123.0833 270° West 150 173 900 -700 Descending Vancouver Center
Thu 03:34:02 PM 49.1833 -123.1333 297° West 120 138 300 -600 Descending Vancouver Center

Login

Don't have an account? Register now (free) for customized features, flight alerts, and more!